Time;durP1;ratioP1;P1;durP2;ratioP2;P2;SDS_P1;SDS_P2;PMS_P1;PMS_P2;Temp;Humidity;BMP_temperature;BMP_pressure;BME280_temperature;BME280_humidity;BME280_pressure;Samples;Min_cycle;Max_cycle;Signal;HPM_P1;HPM_P2
2023/05/05 00:01:12;;;;;;;1.50;1.40;;;17.90;96.70;;;;;;5099949;27;20035;-74
2023/05/05 00:03:42;;;;;;;1.85;1.20;;;17.80;96.70;;;;;;5099432;27;20047;-74
2023/05/05 00:06:10;;;;;;;2.20;1.00;;;17.80;96.70;;;;;;5099631;28;20492;-74
2023/05/05 00:08:40;;;;;;;2.60;1.30;;;17.80;96.70;;;;;;5121174;27;20035;-74
2023/05/05 00:48:59;;;;;;;;;;;17.90;96.70;;;;;;5020816;28;20064;-74
2023/05/05 00:51:27;;;;;;;1.67;1.20;;;17.90;96.70;;;;;;5004781;28;19963;-74
2023/05/05 00:53:56;;;;;;;1.58;1.08;;;17.90;96.70;;;;;;5003647;28;20113;-74
2023/05/05 01:55:33;;;;;;;1.38;1.13;;;17.00;96.70;;;;;;5087179;28;20090;-74
2023/05/05 01:58:25;;;;;;;1.30;1.03;;;16.90;96.70;;;;;;5079839;27;20050;-75
2023/05/05 02:01:16;;;;;;;2.33;1.50;;;17.00;96.70;;;;;;5092323;27;20043;-75
2023/05/05 02:04:03;;;;;;;1.27;1.10;;;17.00;96.70;;;;;;5113489;27;20613;-74
2023/05/05 02:06:57;;;;;;;3.13;1.15;;;16.90;96.70;;;;;;5113823;27;20039;-74
2023/05/05 02:09:39;;;;;;;2.17;0.98;;;16.90;96.70;;;;;;5085610;27;20096;-74
2023/05/05 02:12:10;;;;;;;1.50;0.73;;;16.90;96.70;;;;;;5114400;27;20046;-74
2023/05/05 02:23:23;;;;;;;2.53;1.02;;;16.90;96.70;;;;;;5110727;27;20041;-74
2023/05/05 02:25:56;;;;;;;1.85;1.05;;;16.80;96.70;;;;;;5089216;27;20058;-75
2023/05/05 02:28:39;;;;;;;1.52;1.10;;;16.80;96.70;;;;;;5096520;27;20122;-74
2023/05/05 02:31:11;;;;;;;1.20;0.98;;;16.90;96.70;;;;;;5094071;27;20043;-75
2023/05/05 02:59:27;;;;;;;1.90;1.08;;;16.40;96.70;;;;;;5083784;28;21122;-74
2023/05/05 03:02:10;;;;;;;2.45;1.33;;;16.10;96.70;;;;;;5073696;28;20055;-74
2023/05/05 03:04:41;;;;;;;2.17;1.20;;;16.10;96.70;;;;;;5071104;28;20044;-74
2023/05/05 03:07:24;;;;;;;1.40;1.30;;;16.30;96.70;;;;;;5058426;28;20481;-75
2023/05/05 03:10:00;;;;;;;3.35;1.30;;;16.40;96.70;;;;;;5079107;28;20518;-75
2023/05/05 03:12:37;;;;;;;1.20;1.00;;;16.40;96.70;;;;;;5063291;28;20555;-73
2023/05/05 03:15:24;;;;;;;2.17;1.00;;;16.40;96.70;;;;;;5070355;28;20048;-74
2023/05/05 04:08:27;;;;;;;1.00;0.77;;;16.00;96.70;;;;;;5092933;28;20062;-75
2023/05/05 04:10:56;;;;;;;0.98;0.88;;;16.10;96.70;;;;;;5097692;28;20104;-74
2023/05/05 04:13:24;;;;;;;1.83;1.20;;;16.10;96.70;;;;;;5075349;28;20044;-74
2023/05/05 04:15:54;;;;;;;1.83;1.30;;;16.00;96.70;;;;;;5092980;28;20043;-74
2023/05/05 04:18:25;;;;;;;1.55;1.38;;;16.00;96.70;;;;;;5094657;28;20543;-74
2023/05/05 04:20:54;;;;;;;2.45;1.55;;;16.10;96.70;;;;;;5080599;28;20039;-75
2023/05/05 04:27:37;;;;;;;2.75;2.03;;;16.10;96.70;;;;;;5111673;27;20476;-75
2023/05/05 04:30:08;;;;;;;2.70;2.15;;;16.20;96.70;;;;;;5101927;27;20047;-75
2023/05/05 04:32:39;;;;;;;3.95;2.00;;;16.20;96.70;;;;;;5100339;27;20063;-75
2023/05/05 04:35:09;;;;;;;2.53;1.83;;;16.20;96.70;;;;;;5096568;27;20052;-76
2023/05/05 04:41:51;;;;;;;1.83;1.35;;;16.00;96.70;;;;;;5113139;27;20077;-75
2023/05/05 04:44:21;;;;;;;1.67;1.40;;;16.00;96.70;;;;;;5088757;27;20039;-75
2023/05/05 04:46:49;;;;;;;2.42;1.90;;;16.00;96.70;;;;;;5112320;27;20074;-75
2023/05/05 04:49:18;;;;;;;3.83;1.48;;;16.00;96.70;;;;;;5095932;27;20043;-75
2023/05/05 04:51:46;;;;;;;1.73;1.40;;;16.00;96.70;;;;;;5102051;27;20508;-75
2023/05/05 04:54:14;;;;;;;2.60;1.58;;;16.10;96.70;;;;;;5096315;27;20050;-75
2023/05/05 04:56:42;;;;;;;3.22;1.67;;;16.10;96.70;;;;;;5084193;27;20575;-74
2023/05/05 04:59:10;;;;;;;2.55;1.73;;;16.20;96.70;;;;;;5078133;27;20123;-75
2023/05/05 05:01:40;;;;;;;2.55;1.70;;;16.30;96.70;;;;;;5099884;27;20051;-75
2023/05/05 05:04:09;;;;;;;4.10;2.00;;;16.40;96.70;;;;;;5096250;27;20282;-75
2023/05/05 05:06:37;;;;;;;3.28;1.85;;;16.30;96.70;;;;;;5094193;27;20430;-75
2023/05/05 05:09:05;;;;;;;4.50;1.90;;;16.40;96.70;;;;;;5091513;27;20069;-74
2023/05/05 05:11:33;;;;;;;2.38;1.80;;;16.50;96.70;;;;;;5101878;27;20072;-75
2023/05/05 05:14:01;;;;;;;3.72;2.65;;;16.60;96.70;;;;;;5113222;27;20039;-76
2023/05/05 05:16:29;;;;;;;5.03;3.63;;;16.70;96.70;;;;;;5099387;27;20054;-75
2023/05/05 05:18:59;;;;;;;4.85;3.40;;;16.70;96.70;;;;;;5092275;27;20054;-75
2023/05/05 05:21:30;;;;;;;5.93;3.95;;;16.70;96.70;;;;;;5091973;27;20043;-75
2023/05/05 05:24:00;;;;;;;6.68;4.05;;;16.60;96.70;;;;;;5092360;27;20054;-75
2023/05/05 05:26:29;;;;;;;6.57;3.63;;;16.60;96.70;;;;;;5086255;27;20515;-75
2023/05/05 05:28:57;;;;;;;5.85;3.55;;;16.40;96.70;;;;;;5096770;28;20056;-75
2023/05/05 05:31:25;;;;;;;6.60;4.28;;;16.40;96.70;;;;;;5096534;27;20450;-75
2023/05/05 05:33:55;;;;;;;6.78;4.53;;;16.30;96.70;;;;;;5087822;27;20732;-75
2023/05/05 05:36:25;;;;;;;8.63;5.05;;;16.30;96.70;;;;;;5092252;27;20051;-76
2023/05/05 05:38:54;;;;;;;11.73;6.40;;;16.50;96.70;;;;;;5097018;27;20046;-75
2023/05/05 05:41:22;;;;;;;12.20;6.72;;;16.60;96.70;;;;;;5097088;28;20042;-75
2023/05/05 05:43:50;;;;;;;15.82;8.90;;;16.70;96.70;;;;;;5121337;27;20043;-76
2023/05/05 05:46:18;;;;;;;18.92;9.70;;;16.70;96.70;;;;;;5101732;27;20139;-75
2023/05/05 05:48:47;;;;;;;19.13;11.30;;;16.70;96.70;;;;;;5102936;27;20173;-76
2023/05/05 05:51:15;;;;;;;23.88;12.10;;;16.80;96.70;;;;;;5122854;27;20046;-76
2023/05/05 05:53:45;;;;;;;20.40;11.13;;;16.70;96.70;;;;;;5083177;28;20043;-76
2023/05/05 05:56:13;;;;;;;19.63;11.52;;;16.60;96.70;;;;;;5087515;28;20512;-76
2023/05/05 05:58:41;;;;;;;16.15;9.77;;;16.60;96.70;;;;;;5123114;27;20057;-77
2023/05/05 06:01:09;;;;;;;14.50;8.68;;;16.70;96.70;;;;;;5103483;27;20058;-76
2023/05/05 06:03:37;;;;;;;9.90;5.93;;;16.80;96.70;;;;;;5094937;27;20074;-77
2023/05/05 06:06:06;;;;;;;8.18;5.32;;;16.80;96.70;;;;;;5094423;28;20708;-76
2023/05/05 06:08:34;;;;;;;6.20;4.40;;;16.70;96.70;;;;;;5101860;27;20551;-78
2023/05/05 06:11:04;;;;;;;5.25;4.13;;;16.80;96.70;;;;;;5072053;28;20047;-75
2023/05/05 06:13:33;;;;;;;6.53;3.88;;;16.90;96.70;;;;;;5096243;27;20594;-76
2023/05/05 06:16:01;;;;;;;5.63;3.78;;;16.80;96.70;;;;;;5100086;28;20405;-75
2023/05/05 06:18:30;;;;;;;5.93;3.97;;;16.80;96.70;;;;;;5100458;27;20035;-75
2023/05/05 06:20:59;;;;;;;4.68;3.45;;;17.00;96.70;;;;;;5115218;27;20062;-76
2023/05/05 06:23:28;;;;;;;7.43;3.80;;;17.10;96.70;;;;;;5097069;28;20032;-76
2023/05/05 06:26:03;;;;;;;6.35;3.67;;;17.20;96.70;;;;;;5087592;27;20389;-76
2023/05/05 06:28:31;;;;;;;5.63;3.90;;;17.10;96.70;;;;;;5100520;27;20051;-76
2023/05/05 06:30:59;;;;;;;6.05;3.80;;;17.30;96.70;;;;;;5084014;27;20043;-76
2023/05/05 06:33:27;;;;;;;4.78;3.30;;;17.50;96.70;;;;;;5075249;27;20046;-76
2023/05/05 06:35:56;;;;;;;6.32;2.90;;;17.60;96.70;;;;;;5086067;27;20623;-76
2023/05/05 06:38:24;;;;;;;3.75;2.75;;;17.80;96.70;;;;;;5105362;27;20040;-74
2023/05/05 06:40:52;;;;;;;5.97;2.80;;;17.80;96.70;;;;;;5098533;27;20043;-74
2023/05/05 06:43:21;;;;;;;4.43;2.58;;;17.90;96.70;;;;;;5114006;27;20039;-76
2023/05/05 06:45:56;;;;;;;2.92;2.20;;;17.70;96.70;;;;;;5107566;27;20053;-76
2023/05/05 06:48:24;;;;;;;2.83;2.13;;;17.60;96.70;;;;;;5115146;27;20387;-77
2023/05/05 06:50:52;;;;;;;2.20;1.98;;;17.50;96.70;;;;;;5104771;27;20050;-76
2023/05/05 06:53:20;;;;;;;2.28;2.05;;;17.60;96.70;;;;;;5107076;27;20036;-77
2023/05/05 06:55:48;;;;;;;4.10;2.00;;;17.80;96.70;;;;;;5087844;28;20451;-77
2023/05/05 06:58:17;;;;;;;3.63;2.20;;;17.80;96.70;;;;;;5113203;27;20405;-78
2023/05/05 07:00:47;;;;;;;2.97;1.95;;;17.80;96.70;;;;;;5094735;27;20039;-77
2023/05/05 07:03:15;;;;;;;2.40;2.15;;;17.80;96.70;;;;;;5078515;28;20055;-77
2023/05/05 07:05:43;;;;;;;3.80;1.90;;;17.80;96.70;;;;;;5086380;28;20047;-77
2023/05/05 07:08:11;;;;;;;3.63;1.73;;;17.90;96.70;;;;;;5104551;28;20148;-78
2023/05/05 07:10:41;;;;;;;2.20;1.70;;;18.00;96.70;;;;;;5078021;28;20143;-77
2023/05/05 07:13:10;;;;;;;2.97;1.60;;;18.10;96.70;;;;;;5097202;28;20094;-77
2023/05/05 07:15:47;;;;;;;2.88;1.67;;;18.20;96.70;;;;;;5123559;28;20039;-78
2023/05/05 07:18:16;;;;;;;;;;;18.30;96.70;;;;;;5094137;28;20111;-78
2023/05/05 07:20:44;;;;;;;2.70;2.28;;;18.50;96.70;;;;;;5103192;28;19923;-79
2023/05/05 07:23:12;;;;;;;2.67;2.20;;;18.40;96.70;;;;;;5118289;28;20394;-78
2023/05/05 07:25:41;;;;;;;3.83;2.85;;;18.50;96.70;;;;;;5111618;28;20093;-79
2023/05/05 07:28:10;;;;;;;2.60;2.35;;;18.50;96.70;;;;;;5112716;28;20071;-80
2023/05/05 07:30:38;;;;;;;3.25;2.80;;;18.50;96.70;;;;;;5081738;28;20050;-79
2023/05/05 07:33:06;;;;;;;3.80;2.92;;;18.40;96.70;;;;;;5102080;28;20583;-79
2023/05/05 07:35:36;;;;;;;4.20;2.88;;;18.40;96.70;;;;;;5102197;28;20047;-77
2023/05/05 07:38:04;;;;;;;3.30;3.00;;;18.30;96.70;;;;;;5108274;28;20044;-78
2023/05/05 07:40:34;;;;;;;4.07;2.60;;;18.30;96.70;;;;;;5098738;28;20043;-77
2023/05/05 07:43:02;;;;;;;4.68;3.10;;;18.40;96.70;;;;;;5118061;28;20115;-80
2023/05/05 07:45:30;;;;;;;3.65;3.13;;;18.40;96.70;;;;;;5112926;28;20044;-79
2023/05/05 07:47:58;;;;;;;6.38;3.30;;;18.30;96.70;;;;;;5115546;28;20031;-77
2023/05/05 07:50:27;;;;;;;3.33;2.80;;;18.40;96.70;;;;;;5113026;28;20050;-77
2023/05/05 07:52:57;;;;;;;3.83;2.70;;;18.40;96.70;;;;;;5092236;28;20047;-80
2023/05/05 07:55:40;;;;;;;2.65;2.17;;;18.50;96.70;;;;;;5095832;27;20047;-79
2023/05/05 07:58:09;;;;;;;3.70;2.67;;;18.60;96.70;;;;;;5105107;28;20043;-78
2023/05/05 08:00:38;;;;;;;2.92;2.50;;;18.70;96.70;;;;;;5097754;27;20049;-78
2023/05/05 08:03:06;;;;;;;3.38;2.63;;;18.70;96.70;;;;;;5126803;27;20073;-77
2023/05/05 08:05:38;;;;;;;4.20;2.65;;;18.80;96.70;;;;;;5104190;28;20039;-76
2023/05/05 08:08:08;;;;;;;3.85;2.60;;;18.80;96.70;;;;;;5094225;28;20425;-76
2023/05/05 08:10:36;;;;;;;6.63;2.75;;;18.80;96.70;;;;;;5073425;28;20052;-80
2023/05/05 08:13:04;;;;;;;5.65;2.92;;;18.80;96.70;;;;;;5103180;28;20072;-79
2023/05/05 08:15:33;;;;;;;3.75;2.60;;;18.80;96.70;;;;;;5076724;28;20048;-77
2023/05/05 08:18:01;;;;;;;4.90;2.67;;;18.90;96.70;;;;;;5090674;28;20040;-77
2023/05/05 08:20:29;;;;;;;6.00;2.95;;;19.00;96.70;;;;;;5096069;28;20119;-76
2023/05/05 08:22:57;;;;;;;3.50;2.28;;;19.00;96.70;;;;;;5102904;28;20055;-77
2023/05/05 08:25:27;;;;;;;4.00;2.40;;;19.10;96.70;;;;;;5095282;28;20055;-77
2023/05/05 08:27:55;;;;;;;2.25;2.03;;;19.30;96.70;;;;;;5080469;28;20089;-78
2023/05/05 08:30:24;;;;;;;5.63;2.38;;;19.40;96.70;;;;;;5093872;28;20047;-79
2023/05/05 08:32:52;;;;;;;6.68;2.65;;;19.40;96.70;;;;;;5103065;28;20511;-80
2023/05/05 08:35:21;;;;;;;5.53;2.30;;;19.40;96.70;;;;;;5092187;28;20101;-77
2023/05/05 08:37:50;;;;;;;2.63;2.05;;;19.60;96.70;;;;;;5091401;28;20036;-77
2023/05/05 08:40:21;;;;;;;5.80;2.20;;;19.60;96.70;;;;;;5094845;28;20135;-77
2023/05/05 08:42:51;;;;;;;2.38;2.17;;;19.80;96.70;;;;;;5087693;28;20069;-77
2023/05/05 08:45:19;;;;;;;4.07;2.30;;;19.80;96.70;;;;;;5089083;28;20071;-77
2023/05/05 08:47:47;;;;;;;3.35;1.77;;;20.00;96.70;;;;;;5085537;28;20048;-77
2023/05/05 08:50:18;;;;;;;3.03;2.20;;;20.10;96.70;;;;;;5067433;28;20131;-78
2023/05/05 08:52:52;;;;;;;2.65;2.00;;;20.20;96.70;;;;;;5084060;28;20055;-77
2023/05/05 08:55:24;;;;;;;3.47;2.22;;;20.20;96.70;;;;;;5076998;28;20048;-77
2023/05/05 08:58:00;;;;;;;3.17;1.92;;;20.30;96.70;;;;;;5089963;28;20142;-78
2023/05/05 09:00:28;;;;;;;2.47;1.75;;;20.30;96.70;;;;;;5096553;28;20055;-79
2023/05/05 09:02:57;;;;;;;11.23;2.63;;;20.30;96.70;;;;;;5085958;28;20044;-77
2023/05/05 09:05:25;;;;;;;2.50;2.08;;;20.40;96.70;;;;;;5094622;28;20051;-77
2023/05/05 09:07:54;;;;;;;1.83;1.50;;;20.40;96.70;;;;;;5101123;27;20047;-76
2023/05/05 09:10:23;;;;;;;3.17;2.10;;;20.40;96.70;;;;;;5110517;27;20048;-78
2023/05/05 09:12:53;;;;;;;3.20;1.95;;;20.40;96.70;;;;;;5103865;27;20131;-77
2023/05/05 09:15:21;;;;;;;2.28;1.52;;;20.50;96.70;;;;;;5111976;27;20044;-76
2023/05/05 09:17:49;;;;;;;3.08;1.77;;;20.40;96.70;;;;;;5115744;27;20054;-79
2023/05/05 09:20:17;;;;;;;2.47;2.03;;;20.40;96.70;;;;;;5098739;27;20048;-78
2023/05/05 09:22:46;;;;;;;2.40;1.77;;;20.60;96.70;;;;;;5105716;27;20039;-77
2023/05/05 09:25:16;;;;;;;5.30;2.55;;;20.80;96.70;;;;;;5118939;27;20070;-77
2023/05/05 09:27:45;;;;;;;2.35;2.03;;;20.80;96.70;;;;;;5109704;27;20047;-77
2023/05/05 09:30:17;;;;;;;5.90;2.03;;;20.90;96.70;;;;;;5116022;27;20039;-77
2023/05/05 09:32:46;;;;;;;4.15;2.30;;;21.00;96.70;;;;;;5105857;27;20044;-77
2023/05/05 09:35:16;;;;;;;5.57;2.42;;;21.20;96.70;;;;;;5114806;27;20047;-77
2023/05/05 09:37:44;;;;;;;2.92;2.35;;;21.30;96.70;;;;;;5099049;27;20469;-77
2023/05/05 09:40:14;;;;;;;5.07;2.53;;;21.30;96.70;;;;;;5120862;27;20039;-77
2023/05/05 09:42:43;;;;;;;2.88;2.50;;;21.40;96.70;;;;;;5106390;27;20047;-77
2023/05/05 09:45:26;;;;;;;5.20;2.80;;;21.40;96.70;;;;;;5123284;27;20744;-79
2023/05/05 09:47:54;;;;;;;3.08;2.38;;;21.60;96.70;;;;;;5096084;28;20051;-79
2023/05/05 09:50:29;;;;;;;3.53;2.30;;;21.80;96.70;;;;;;5100731;27;20051;-79
2023/05/05 09:52:59;;;;;;;3.97;2.90;;;21.90;96.70;;;;;;5115887;27;20043;-77
2023/05/05 09:55:29;;;;;;;5.95;3.20;;;22.00;96.70;;;;;;5087512;27;20106;-76
2023/05/05 09:58:17;;;;;;;6.32;3.20;;;21.90;96.70;;;;;;5102925;27;20215;-77
2023/05/05 10:00:47;;;;;;;4.22;2.83;;;22.00;96.70;;;;;;5095787;28;20050;-79
2023/05/05 10:03:15;;;;;;;4.47;2.53;;;22.30;96.70;;;;;;5104811;27;20046;-77
2023/05/05 10:05:49;;;;;;;5.55;2.63;;;22.30;96.70;;;;;;5104687;27;20088;-81
2023/05/05 10:08:18;;;;;;;3.78;2.78;;;22.40;96.70;;;;;;5080204;28;20067;-81
2023/05/05 10:10:53;;;;;;;2.83;2.22;;;22.50;96.70;;;;;;5102450;28;20116;-81
2023/05/05 10:13:23;;;;;;;4.00;2.30;;;22.60;96.70;;;;;;5094849;28;20487;-82
2023/05/05 10:15:54;;;;;;;3.42;2.22;;;22.70;96.70;;;;;;5088161;28;20048;-81
2023/05/05 10:18:23;;;;;;;3.25;1.92;;;22.70;96.70;;;;;;5101780;28;20058;-80
2023/05/05 10:20:58;;;;;;;3.30;2.20;;;22.90;96.70;;;;;;5096511;28;20514;-81
2023/05/05 10:23:35;;;;;;;3.88;2.70;;;22.90;96.70;;;;;;5092439;28;20372;-76
2023/05/05 10:26:06;;;;;;;4.00;2.58;;;23.00;96.70;;;;;;5089276;28;20043;-77
2023/05/05 10:28:40;;;;;;;4.63;3.00;;;23.20;96.70;;;;;;5103459;28;20560;-77
2023/05/05 10:31:16;;;;;;;3.33;2.65;;;23.30;96.70;;;;;;5103342;28;20071;-76
2023/05/05 10:33:56;;;;;;;4.45;3.10;;;23.30;96.70;;;;;;5101675;28;20069;-77
2023/05/05 10:36:25;;;;;;;7.05;2.58;;;23.40;96.70;;;;;;5093305;28;21287;-77
2023/05/05 10:38:57;;;;;;;2.60;2.38;;;23.50;96.70;;;;;;5097569;28;20035;-77
2023/05/05 10:41:27;;;;;;;3.22;2.17;;;23.60;96.70;;;;;;5092965;28;20047;-76
2023/05/05 10:43:56;;;;;;;3.25;2.92;;;23.70;96.70;;;;;;5081618;28;20115;-77
2023/05/05 10:46:27;;;;;;;4.00;3.10;;;23.60;96.70;;;;;;5099374;28;20047;-78
2023/05/05 10:49:02;;;;;;;4.47;3.05;;;23.80;96.70;;;;;;5073769;28;20329;-77
2023/05/05 10:51:39;;;;;;;4.50;3.72;;;24.00;96.70;;;;;;5097900;28;20109;-78
2023/05/05 10:54:15;;;;;;;4.97;2.95;;;24.00;96.70;;;;;;5101483;28;20130;-78
2023/05/05 10:56:47;;;;;;;6.43;3.53;;;24.00;96.70;;;;;;5086617;28;20048;-78
2023/05/05 10:59:42;;;;;;;5.88;3.38;;;24.10;96.70;;;;;;5103640;28;20043;-78
2023/05/05 11:02:25;;;;;;;3.95;3.22;;;24.20;96.70;;;;;;5091488;28;20668;-78
2023/05/05 11:05:09;;;;;;;3.53;3.22;;;24.30;96.70;;;;;;5095740;28;20043;-78
2023/05/05 11:07:37;;;;;;;4.85;3.08;;;24.30;96.70;;;;;;5105507;28;20054;-77
2023/05/05 11:10:06;;;;;;;3.95;2.97;;;24.40;96.70;;;;;;5113570;27;20051;-78
2023/05/05 11:13:04;;;;;;;5.88;3.58;;;24.50;96.70;;;;;;5103151;28;20043;-80
2023/05/05 11:15:36;;;;;;;5.78;2.95;;;24.60;96.70;;;;;;5096023;28;20420;-77
2023/05/05 11:18:06;;;;;;;5.60;3.80;;;24.50;96.70;;;;;;5108903;28;20044;-77
2023/05/05 11:21:01;;;;;;;5.80;2.60;;;24.80;96.70;;;;;;5094443;28;20047;-77
2023/05/05 11:23:30;;;;;;;3.13;2.20;;;24.80;96.70;;;;;;5094374;28;20755;-77
2023/05/05 11:25:58;;;;;;;3.97;2.40;;;24.90;96.70;;;;;;5094196;28;20047;-78
2023/05/05 11:28:29;;;;;;;2.05;1.38;;;25.00;96.70;;;;;;5112414;28;20055;-76
2023/05/05 11:31:18;;;;;;;4.07;1.40;;;25.10;96.70;;;;;;5078480;28;20131;-79
2023/05/05 11:33:48;;;;;;;1.95;1.38;;;25.20;96.70;;;;;;5123719;28;20039;-79
2023/05/05 11:36:17;;;;;;;2.50;1.25;;;25.20;96.70;;;;;;5102735;27;20147;-78
2023/05/05 11:39:05;;;;;;;1.23;1.00;;;25.30;96.70;;;;;;5096594;27;20051;-78
2023/05/05 11:42:06;;;;;;;2.53;1.00;;;25.30;96.70;;;;;;5105441;27;20126;-77
2023/05/05 11:44:37;;;;;;;1.55;1.00;;;25.40;96.70;;;;;;5074631;27;20071;-77
2023/05/05 11:47:31;;;;;;;1.88;1.23;;;25.60;96.70;;;;;;5122290;27;20047;-77
2023/05/05 11:50:17;;;;;;;2.25;0.95;;;25.60;96.70;;;;;;5098094;27;20516;-78
2023/05/05 11:52:46;;;;;;;0.73;0.73;;;25.60;96.70;;;;;;5107911;27;20419;-78
2023/05/05 11:55:20;;;;;;;2.45;0.70;;;25.40;96.70;;;;;;5104489;27;20594;-77
2023/05/05 11:57:48;;;;;;;3.15;0.70;;;25.60;96.70;;;;;;5099366;27;20597;-77
2023/05/05 12:00:17;;;;;;;0.85;0.52;;;25.60;96.70;;;;;;5127280;27;20035;-77
2023/05/05 12:02:46;;;;;;;1.83;0.80;;;25.70;96.70;;;;;;5099845;27;20468;-77
2023/05/05 12:05:20;;;;;;;1.73;0.60;;;25.60;96.70;;;;;;5100162;28;20039;-76
2023/05/05 12:07:56;;;;;;;1.42;0.80;;;25.70;96.70;;;;;;5107255;27;20401;-77
2023/05/05 12:10:24;;;;;;;0.60;0.60;;;25.80;96.70;;;;;;5116864;27;20117;-77
2023/05/05 12:12:53;;;;;;;2.78;0.68;;;25.90;96.70;;;;;;5090037;27;20131;-79
2023/05/05 12:15:30;;;;;;;1.30;0.73;;;25.80;96.70;;;;;;5106087;27;20039;-76
2023/05/05 12:17:59;;;;;;;3.35;0.80;;;25.70;96.70;;;;;;5116009;27;20568;-76
2023/05/05 12:20:35;;;;;;;1.52;0.75;;;25.70;96.70;;;;;;5119933;27;20479;-76
2023/05/05 12:23:03;;;;;;;0.90;0.50;;;25.80;96.70;;;;;;5071682;28;20441;-75
2023/05/05 12:25:36;;;;;;;4.43;0.75;;;25.90;96.70;;;;;;5102032;27;20089;-75
2023/05/05 12:28:06;;;;;;;0.70;0.60;;;25.90;96.70;;;;;;5106834;27;20079;-75
2023/05/05 12:30:35;;;;;;;2.00;0.60;;;26.00;96.70;;;;;;5104435;27;20520;-75
2023/05/05 12:33:05;;;;;;;3.83;0.77;;;26.10;96.70;;;;;;5082242;27;20047;-75
2023/05/05 12:35:35;;;;;;;3.25;0.70;;;26.00;96.70;;;;;;5098764;27;20162;-75
2023/05/05 12:38:04;;;;;;;1.75;0.85;;;26.00;96.70;;;;;;5121292;27;20046;-74
2023/05/05 12:40:46;;;;;;;2.22;0.70;;;25.90;96.70;;;;;;5097289;28;20045;-75
2023/05/05 12:43:30;;;;;;;1.27;0.85;;;25.80;96.70;;;;;;5105642;27;20488;-75
2023/05/05 12:46:04;;;;;;;5.03;0.98;;;25.80;96.70;;;;;;5099707;27;20047;-76
2023/05/05 12:48:33;;;;;;;3.40;0.85;;;25.80;96.70;;;;;;5103806;27;20043;-76
2023/05/05 12:51:18;;;;;;;1.92;0.68;;;25.90;96.70;;;;;;5070687;27;20043;-76
2023/05/05 12:53:48;;;;;;;0.60;0.50;;;26.10;96.70;;;;;;5105304;27;20113;-77
2023/05/05 12:56:29;;;;;;;3.97;0.70;;;25.80;96.70;;;;;;5105908;27;20038;-77
2023/05/05 12:58:58;;;;;;;0.90;0.63;;;25.90;96.70;;;;;;5105118;27;20047;-77
2023/05/05 13:01:26;;;;;;;1.08;0.60;;;25.80;96.70;;;;;;5114740;27;20852;-77
2023/05/05 13:04:12;;;;;;;4.47;0.80;;;25.90;96.70;;;;;;5125548;27;20039;-77
2023/05/05 13:06:44;;;;;;;1.77;0.80;;;25.60;96.70;;;;;;5117997;27;20039;-76
2023/05/05 13:09:25;;;;;;;0.82;0.63;;;25.70;96.70;;;;;;5123780;27;20094;-77
2023/05/05 13:11:54;;;;;;;1.70;0.80;;;25.90;96.70;;;;;;5103524;27;20071;-77
2023/05/05 13:14:23;;;;;;;4.97;0.77;;;26.00;96.70;;;;;;5101840;27;20043;-81
2023/05/05 13:16:52;;;;;;;1.92;0.70;;;26.10;96.70;;;;;;5099082;27;20122;-77
2023/05/05 13:19:23;;;;;;;0.80;0.63;;;26.20;96.70;;;;;;5080050;27;20043;-80
2023/05/05 13:21:54;;;;;;;1.95;0.75;;;26.10;96.70;;;;;;5088771;27;20510;-77
2023/05/05 13:24:23;;;;;;;8.77;1.52;;;26.30;96.70;;;;;;5124580;27;20114;-79
2023/05/05 13:27:09;;;;;;;3.92;1.17;;;26.60;96.70;;;;;;5089343;28;20048;-79
2023/05/05 13:29:38;;;;;;;3.50;0.77;;;26.70;96.70;;;;;;5103975;27;20043;-78
2023/05/05 13:32:07;;;;;;;1.90;0.70;;;26.50;96.70;;;;;;5089608;27;20100;-79
2023/05/05 13:34:37;;;;;;;2.55;0.60;;;26.60;96.70;;;;;;5105949;27;20038;-77
2023/05/05 13:37:08;;;;;;;0.70;0.55;;;26.60;96.70;;;;;;5105932;27;20086;-79
2023/05/05 13:39:36;;;;;;;1.95;0.75;;;26.70;96.70;;;;;;5097269;28;20146;-77
2023/05/05 13:42:05;;;;;;;1.50;0.85;;;26.70;96.70;;;;;;5104804;27;20615;-76
2023/05/05 13:44:34;;;;;;;1.13;0.60;;;26.80;96.70;;;;;;5124364;27;20095;-77
2023/05/05 13:47:02;;;;;;;0.82;0.60;;;26.90;96.70;;;;;;5114680;27;20063;-77
2023/05/05 13:49:31;;;;;;;1.67;0.70;;;26.90;96.70;;;;;;5110377;27;20047;-77
2023/05/05 13:52:00;;;;;;;0.47;0.47;;;27.00;96.70;;;;;;5084762;27;20065;-77
2023/05/05 13:54:30;;;;;;;1.30;0.57;;;27.20;96.70;;;;;;5111465;27;20039;-78
2023/05/05 13:56:58;;;;;;;2.78;0.70;;;27.10;96.70;;;;;;5124375;27;20706;-77
2023/05/05 13:59:27;;;;;;;3.88;0.68;;;27.00;96.70;;;;;;5121795;27;20047;-77
2023/05/05 14:01:55;;;;;;;2.35;0.73;;;27.10;96.70;;;;;;5110758;27;20071;-77
2023/05/05 14:04:24;;;;;;;1.70;0.85;;;26.90;96.70;;;;;;5125053;27;20125;-76
2023/05/05 14:06:52;;;;;;;2.30;0.85;;;26.90;96.70;;;;;;5094273;28;20051;-76
2023/05/05 14:09:21;;;;;;;1.75;0.70;;;27.10;96.70;;;;;;5114402;27;20062;-76
2023/05/05 14:11:52;;;;;;;1.52;0.98;;;27.20;96.70;;;;;;5103580;28;20051;-76
2023/05/05 14:14:20;;;;;;;1.10;0.50;;;27.40;96.70;;;;;;5102402;27;20062;-76
2023/05/05 14:16:49;;;;;;;1.48;0.60;;;27.10;96.70;;;;;;5101005;27;20464;-76
2023/05/05 14:19:17;;;;;;;0.77;0.43;;;27.10;96.70;;;;;;5105776;27;20043;-77
2023/05/05 14:21:45;;;;;;;0.57;0.57;;;27.50;96.70;;;;;;5068935;28;20412;-76
2023/05/05 14:24:14;;;;;;;3.03;0.68;;;27.30;96.70;;;;;;5077778;27;20055;-76
2023/05/05 14:26:42;;;;;;;1.65;0.50;;;27.30;96.70;;;;;;5101189;28;20040;-76
2023/05/05 14:29:12;;;;;;;0.88;0.40;;;27.30;96.70;;;;;;5083651;27;20591;-76
2023/05/05 14:31:40;;;;;;;1.30;0.70;;;27.40;96.70;;;;;;5107602;27;20050;-77
2023/05/05 14:34:09;;;;;;;0.65;0.40;;;27.40;96.70;;;;;;5115982;27;20130;-77
2023/05/05 14:36:37;;;;;;;0.90;0.40;;;27.30;96.70;;;;;;5106057;27;20530;-77
2023/05/05 14:39:05;;;;;;;3.15;0.82;;;27.30;96.70;;;;;;5095366;27;20100;-77
2023/05/05 14:41:33;;;;;;;1.48;0.55;;;27.60;96.70;;;;;;5117668;27;20096;-77
2023/05/05 14:44:02;;;;;;;2.10;0.40;;;27.50;96.70;;;;;;5089465;28;20074;-77
2023/05/05 14:46:32;;;;;;;1.50;0.45;;;27.30;96.70;;;;;;5112165;27;20047;-77
2023/05/05 14:49:01;;;;;;;1.02;0.60;;;27.30;96.70;;;;;;5102913;27;20050;-76
2023/05/05 14:51:30;;;;;;;1.05;0.47;;;27.30;96.70;;;;;;5106961;27;20039;-76
2023/05/05 14:53:58;;;;;;;2.25;0.57;;;27.70;96.70;;;;;;5122292;27;20119;-76
2023/05/05 14:56:27;;;;;;;2.88;0.70;;;27.70;96.70;;;;;;5123716;27;20424;-76
2023/05/05 14:58:55;;;;;;;0.90;0.35;;;28.10;96.70;;;;;;5124367;27;20435;-76
2023/05/05 15:01:26;;;;;;;0.82;0.50;;;28.50;96.70;;;;;;5084404;28;20035;-76
2023/05/05 15:03:56;;;;;;;2.30;0.40;;;28.60;96.70;;;;;;5123429;27;20070;-77
2023/05/05 15:06:26;;;;;;;5.95;0.80;;;28.30;96.70;;;;;;5124188;27;20739;-77
2023/05/05 15:08:55;;;;;;;5.57;0.60;;;28.50;96.70;;;;;;5087603;27;20535;-77
2023/05/05 15:11:23;;;;;;;2.25;0.40;;;28.60;96.70;;;;;;5104488;27;20095;-76
2023/05/05 15:13:51;;;;;;;1.50;0.30;;;28.60;96.70;;;;;;5096285;28;20047;-76
2023/05/05 15:16:20;;;;;;;1.85;0.35;;;28.10;96.70;;;;;;5120230;27;20054;-77
2023/05/05 15:18:48;;;;;;;2.05;0.32;;;28.30;96.70;;;;;;5072725;28;20565;-77
2023/05/05 15:21:18;;;;;;;1.10;0.40;;;29.00;96.70;;;;;;5076195;28;20134;-77
2023/05/05 15:23:46;;;;;;;2.55;0.43;;;29.20;96.70;;;;;;5104236;28;20130;-77
2023/05/05 15:26:15;;;;;;;3.95;0.50;;;28.70;96.70;;;;;;5105281;28;20500;-77
2023/05/05 15:28:43;;;;;;;3.40;0.50;;;28.70;96.70;;;;;;5103411;28;20069;-77
2023/05/05 15:31:12;;;;;;;2.22;0.40;;;28.50;96.70;;;;;;5110656;27;20053;-77
2023/05/05 15:33:41;;;;;;;0.93;0.40;;;28.80;96.70;;;;;;5098314;28;20482;-77
2023/05/05 15:36:10;;;;;;;1.52;0.50;;;29.10;96.70;;;;;;5080410;28;20040;-77
2023/05/05 15:38:43;;;;;;;2.22;0.52;;;28.80;96.70;;;;;;5121062;28;20105;-77
2023/05/05 15:41:11;;;;;;;1.67;0.30;;;29.10;96.70;;;;;;5086899;28;20079;-76
2023/05/05 15:43:40;;;;;;;0.70;0.40;;;28.80;96.70;;;;;;5096275;28;20051;-76
2023/05/05 15:46:08;;;;;;;1.05;0.30;;;28.50;96.70;;;;;;5102757;28;20043;-77
2023/05/05 15:48:36;;;;;;;3.15;0.47;;;28.40;96.70;;;;;;5094082;28;20043;-76
2023/05/05 15:51:05;;;;;;;0.40;0.30;;;28.60;96.70;;;;;;5111973;28;20066;-77
2023/05/05 15:53:33;;;;;;;2.25;0.22;;;28.60;96.70;;;;;;5115669;28;20032;-77
2023/05/05 15:56:03;;;;;;;1.75;0.28;;;29.40;96.70;;;;;;5086718;28;20144;-76
2023/05/05 15:58:31;;;;;;;3.22;0.30;;;29.80;96.70;;;;;;5078518;28;20062;-77
2023/05/05 16:00:59;;;;;;;2.42;0.40;;;29.80;96.70;;;;;;5103162;28;20043;-77
2023/05/05 16:03:27;;;;;;;1.60;0.47;;;29.50;96.70;;;;;;5118048;28;20039;-77
2023/05/05 16:05:56;;;;;;;4.00;0.40;;;29.80;96.70;;;;;;5103128;28;20068;-77
2023/05/05 16:08:24;;;;;;;1.27;0.30;;;29.50;96.70;;;;;;5102944;28;20100;-77
2023/05/05 16:10:53;;;;;;;1.38;0.20;;;29.80;96.70;;;;;;5114635;28;20047;-76
2023/05/05 16:13:22;;;;;;;1.60;0.35;;;30.20;96.70;;;;;;5104865;28;20638;-76
2023/05/05 16:15:51;;;;;;;0.82;0.20;;;30.40;96.70;;;;;;5124296;27;20051;-76
2023/05/05 16:18:20;;;;;;;1.02;0.35;;;30.10;96.70;;;;;;5096648;28;20044;-77